sensor_id;sensor_type;location;lat;lon;timestamp;P1;durP1;ratioP1;P2;durP2;ratioP2
31282;SDS011;17915;52.540;13.604;2023-07-28T00:00:53;3.97;;;2.20;;
31282;SDS011;17915;52.540;13.604;2023-07-28T00:03:19;2.23;;;2.13;;
31282;SDS011;17915;52.540;13.604;2023-07-28T00:05:44;4.13;;;2.37;;
31282;SDS011;17915;52.540;13.604;2023-07-28T00:08:10;5.20;;;2.23;;
31282;SDS011;17915;52.540;13.604;2023-07-28T00:10:39;2.20;;;2.10;;
31282;SDS011;17915;52.540;13.604;2023-07-28T00:13:06;6.00;;;2.00;;
31282;SDS011;17915;52.540;13.604;2023-07-28T00:15:31;1.60;;;1.50;;
31282;SDS011;17915;52.540;13.604;2023-07-28T00:17:57;1.67;;;1.53;;
31282;SDS011;17915;52.540;13.604;2023-07-28T00:20:22;1.87;;;1.77;;
31282;SDS011;17915;52.540;13.604;2023-07-28T00:22:48;2.17;;;2.03;;
31282;SDS011;17915;52.540;13.604;2023-07-28T00:25:13;2.07;;;1.43;;
31282;SDS011;17915;52.540;13.604;2023-07-28T00:27:39;2.73;;;1.97;;
31282;SDS011;17915;52.540;13.604;2023-07-28T00:30:04;1.63;;;1.63;;
31282;SDS011;17915;52.540;13.604;2023-07-28T00:32:30;6.72;;;1.45;;
31282;SDS011;17915;52.540;13.604;2023-07-28T00:34:55;2.47;;;1.87;;
31282;SDS011;17915;52.540;13.604;2023-07-28T00:37:21;1.60;;;1.60;;
31282;SDS011;17915;52.540;13.604;2023-07-28T00:39:46;1.67;;;1.57;;
31282;SDS011;17915;52.540;13.604;2023-07-28T00:42:11;4.87;;;1.87;;
31282;SDS011;17915;52.540;13.604;2023-07-28T00:44:37;1.83;;;1.80;;
31282;SDS011;17915;52.540;13.604;2023-07-28T00:47:02;2.00;;;1.90;;
31282;SDS011;17915;52.540;13.604;2023-07-28T00:49:28;2.33;;;2.20;;
31282;SDS011;17915;52.540;13.604;2023-07-28T00:51:54;2.28;;;2.17;;
31282;SDS011;17915;52.540;13.604;2023-07-28T00:54:20;1.52;;;1.52;;
31282;SDS011;17915;52.540;13.604;2023-07-28T00:56:46;4.30;;;2.30;;
31282;SDS011;17915;52.540;13.604;2023-07-28T00:59:11;2.60;;;2.40;;
31282;SDS011;17915;52.540;13.604;2023-07-28T01:01:38;2.47;;;2.38;;
31282;SDS011;17915;52.540;13.604;2023-07-28T01:04:03;2.70;;;2.50;;
31282;SDS011;17915;52.540;13.604;2023-07-28T01:09:16;2.92;;;2.72;;
31282;SDS011;17915;52.540;13.604;2023-07-28T01:11:57;3.13;;;2.92;;
31282;SDS011;17915;52.540;13.604;2023-07-28T01:14:23;3.53;;;3.17;;
31282;SDS011;17915;52.540;13.604;2023-07-28T01:16:48;8.43;;;3.30;;
31282;SDS011;17915;52.540;13.604;2023-07-28T01:19:15;2.97;;;2.87;;
31282;SDS011;17915;52.540;13.604;2023-07-28T01:21:43;2.97;;;2.80;;
31282;SDS011;17915;52.540;13.604;2023-07-28T01:24:15;6.22;;;3.50;;
31282;SDS011;17915;52.540;13.604;2023-07-28T01:26:45;4.40;;;4.10;;
31282;SDS011;17915;52.540;13.604;2023-07-28T01:29:11;3.33;;;3.10;;
31282;SDS011;17915;52.540;13.604;2023-07-28T01:31:39;3.75;;;3.45;;
31282;SDS011;17915;52.540;13.604;2023-07-28T01:36:29;3.17;;;3.00;;
31282;SDS011;17915;52.540;13.604;2023-07-28T01:38:55;4.40;;;4.07;;
31282;SDS011;17915;52.540;13.604;2023-07-28T01:41:20;6.70;;;3.23;;
31282;SDS011;17915;52.540;13.604;2023-07-28T01:43:46;9.60;;;3.17;;
31282;SDS011;17915;52.540;13.604;2023-07-28T01:46:11;6.63;;;3.43;;
31282;SDS011;17915;52.540;13.604;2023-07-28T01:48:36;3.47;;;3.17;;
31282;SDS011;17915;52.540;13.604;2023-07-28T01:51:02;5.20;;;2.97;;
31282;SDS011;17915;52.540;13.604;2023-07-28T01:53:27;7.57;;;3.90;;
31282;SDS011;17915;52.540;13.604;2023-07-28T01:55:53;3.87;;;3.50;;
31282;SDS011;17915;52.540;13.604;2023-07-28T01:58:18;6.20;;;3.83;;
31282;SDS011;17915;52.540;13.604;2023-07-28T02:00:43;6.10;;;3.57;;
31282;SDS011;17915;52.540;13.604;2023-07-28T02:03:11;4.20;;;3.90;;
31282;SDS011;17915;52.540;13.604;2023-07-28T02:05:36;4.07;;;3.80;;
31282;SDS011;17915;52.540;13.604;2023-07-28T02:08:02;5.27;;;4.03;;
31282;SDS011;17915;52.540;13.604;2023-07-28T02:10:27;3.53;;;2.90;;
31282;SDS011;17915;52.540;13.604;2023-07-28T02:12:53;3.10;;;2.97;;
31282;SDS011;17915;52.540;13.604;2023-07-28T02:15:18;3.73;;;3.43;;
31282;SDS011;17915;52.540;13.604;2023-07-28T02:17:44;3.23;;;3.10;;
31282;SDS011;17915;52.540;13.604;2023-07-28T02:20:09;4.53;;;4.13;;
31282;SDS011;17915;52.540;13.604;2023-07-28T02:22:40;4.03;;;3.53;;
31282;SDS011;17915;52.540;13.604;2023-07-28T02:25:06;4.10;;;3.78;;
31282;SDS011;17915;52.540;13.604;2023-07-28T02:27:31;4.05;;;3.75;;
31282;SDS011;17915;52.540;13.604;2023-07-28T02:29:57;5.87;;;3.73;;
31282;SDS011;17915;52.540;13.604;2023-07-28T02:32:22;3.60;;;3.40;;
31282;SDS011;17915;52.540;13.604;2023-07-28T02:34:48;3.83;;;3.63;;
31282;SDS011;17915;52.540;13.604;2023-07-28T02:37:14;4.50;;;4.17;;
31282;SDS011;17915;52.540;13.604;2023-07-28T02:39:40;5.88;;;4.35;;
31282;SDS011;17915;52.540;13.604;2023-07-28T02:42:05;4.97;;;3.97;;
31282;SDS011;17915;52.540;13.604;2023-07-28T02:44:31;5.43;;;4.88;;
31282;SDS011;17915;52.540;13.604;2023-07-28T02:46:56;5.20;;;4.87;;
31282;SDS011;17915;52.540;13.604;2023-07-28T02:49:22;9.50;;;5.10;;
31282;SDS011;17915;52.540;13.604;2023-07-28T02:51:47;5.17;;;4.77;;
31282;SDS011;17915;52.540;13.604;2023-07-28T02:54:13;5.57;;;5.23;;
31282;SDS011;17915;52.540;13.604;2023-07-28T02:56:38;5.33;;;4.93;;
31282;SDS011;17915;52.540;13.604;2023-07-28T02:59:04;16.57;;;4.63;;
31282;SDS011;17915;52.540;13.604;2023-07-28T03:01:30;5.72;;;5.30;;
31282;SDS011;17915;52.540;13.604;2023-07-28T03:03:59;5.60;;;5.20;;
31282;SDS011;17915;52.540;13.604;2023-07-28T03:06:27;6.10;;;5.68;;
31282;SDS011;17915;52.540;13.604;2023-07-28T03:08:53;5.77;;;5.30;;
31282;SDS011;17915;52.540;13.604;2023-07-28T03:11:18;5.50;;;5.10;;
31282;SDS011;17915;52.540;13.604;2023-07-28T03:13:44;5.70;;;5.27;;
31282;SDS011;17915;52.540;13.604;2023-07-28T03:16:09;6.17;;;5.63;;
31282;SDS011;17915;52.540;13.604;2023-07-28T03:18:35;6.13;;;5.67;;
31282;SDS011;17915;52.540;13.604;2023-07-28T03:21:00;6.77;;;6.00;;
31282;SDS011;17915;52.540;13.604;2023-07-28T03:23:26;6.43;;;5.93;;
31282;SDS011;17915;52.540;13.604;2023-07-28T03:25:51;14.40;;;6.20;;
31282;SDS011;17915;52.540;13.604;2023-07-28T03:28:17;6.30;;;5.90;;
31282;SDS011;17915;52.540;13.604;2023-07-28T03:30:42;6.53;;;5.93;;
31282;SDS011;17915;52.540;13.604;2023-07-28T03:33:07;12.47;;;7.47;;
31282;SDS011;17915;52.540;13.604;2023-07-28T03:35:33;9.60;;;6.97;;
31282;SDS011;17915;52.540;13.604;2023-07-28T03:37:58;8.77;;;6.13;;
31282;SDS011;17915;52.540;13.604;2023-07-28T03:40:23;7.57;;;6.60;;
31282;SDS011;17915;52.540;13.604;2023-07-28T03:42:49;13.87;;;6.57;;
31282;SDS011;17915;52.540;13.604;2023-07-28T03:45:15;6.57;;;6.00;;
31282;SDS011;17915;52.540;13.604;2023-07-28T03:47:40;14.83;;;6.83;;
31282;SDS011;17915;52.540;13.604;2023-07-28T03:50:05;8.00;;;7.20;;
31282;SDS011;17915;52.540;13.604;2023-07-28T03:52:31;6.67;;;6.17;;
31282;SDS011;17915;52.540;13.604;2023-07-28T03:54:56;7.10;;;6.47;;
31282;SDS011;17915;52.540;13.604;2023-07-28T03:57:22;21.23;;;7.57;;
31282;SDS011;17915;52.540;13.604;2023-07-28T03:59:47;7.57;;;6.83;;
31282;SDS011;17915;52.540;13.604;2023-07-28T04:02:13;7.53;;;6.90;;
31282;SDS011;17915;52.540;13.604;2023-07-28T04:04:38;10.47;;;7.20;;
31282;SDS011;17915;52.540;13.604;2023-07-28T04:07:03;11.47;;;6.60;;
31282;SDS011;17915;52.540;13.604;2023-07-28T04:09:29;7.53;;;7.03;;
31282;SDS011;17915;52.540;13.604;2023-07-28T04:11:54;7.57;;;6.97;;
31282;SDS011;17915;52.540;13.604;2023-07-28T04:14:20;13.77;;;8.63;;
31282;SDS011;17915;52.540;13.604;2023-07-28T04:16:45;8.37;;;7.67;;
31282;SDS011;17915;52.540;13.604;2023-07-28T04:19:11;10.10;;;7.67;;
31282;SDS011;17915;52.540;13.604;2023-07-28T04:21:36;9.93;;;8.50;;
31282;SDS011;17915;52.540;13.604;2023-07-28T04:24:05;8.98;;;8.00;;
31282;SDS011;17915;52.540;13.604;2023-07-28T04:26:31;8.88;;;8.07;;
31282;SDS011;17915;52.540;13.604;2023-07-28T04:28:57;10.70;;;8.97;;
31282;SDS011;17915;52.540;13.604;2023-07-28T04:31:22;7.83;;;7.13;;
31282;SDS011;17915;52.540;13.604;2023-07-28T04:33:48;7.43;;;6.73;;
31282;SDS011;17915;52.540;13.604;2023-07-28T04:36:13;7.67;;;6.80;;
31282;SDS011;17915;52.540;13.604;2023-07-28T04:38:38;9.70;;;7.53;;
31282;SDS011;17915;52.540;13.604;2023-07-28T04:41:04;6.90;;;6.27;;
31282;SDS011;17915;52.540;13.604;2023-07-28T04:43:29;7.77;;;6.97;;
31282;SDS011;17915;52.540;13.604;2023-07-28T04:45:54;7.13;;;6.53;;
31282;SDS011;17915;52.540;13.604;2023-07-28T04:48:21;6.33;;;5.63;;
31282;SDS011;17915;52.540;13.604;2023-07-28T04:50:46;7.63;;;7.13;;
31282;SDS011;17915;52.540;13.604;2023-07-28T04:53:12;9.00;;;7.47;;
31282;SDS011;17915;52.540;13.604;2023-07-28T04:55:37;7.27;;;6.73;;
31282;SDS011;17915;52.540;13.604;2023-07-28T04:58:02;7.13;;;6.53;;
31282;SDS011;17915;52.540;13.604;2023-07-28T05:00:28;6.23;;;5.93;;
31282;SDS011;17915;52.540;13.604;2023-07-28T05:02:53;8.27;;;7.57;;
31282;SDS011;17915;52.540;13.604;2023-07-28T05:05:19;9.30;;;8.47;;
31282;SDS011;17915;52.540;13.604;2023-07-28T05:07:44;6.80;;;6.30;;
31282;SDS011;17915;52.540;13.604;2023-07-28T05:10:10;8.13;;;7.30;;
31282;SDS011;17915;52.540;13.604;2023-07-28T05:12:35;7.87;;;6.93;;
31282;SDS011;17915;52.540;13.604;2023-07-28T05:15:00;7.07;;;6.53;;
31282;SDS011;17915;52.540;13.604;2023-07-28T05:17:26;7.40;;;6.70;;
31282;SDS011;17915;52.540;13.604;2023-07-28T05:19:51;8.20;;;7.40;;
31282;SDS011;17915;52.540;13.604;2023-07-28T05:22:17;7.40;;;6.87;;
31282;SDS011;17915;52.540;13.604;2023-07-28T05:24:42;8.13;;;7.23;;
31282;SDS011;17915;52.540;13.604;2023-07-28T05:27:09;7.63;;;6.97;;
31282;SDS011;17915;52.540;13.604;2023-07-28T05:29:35;7.90;;;7.40;;
31282;SDS011;17915;52.540;13.604;2023-07-28T05:32:00;7.30;;;6.70;;
31282;SDS011;17915;52.540;13.604;2023-07-28T05:34:26;9.30;;;7.20;;
31282;SDS011;17915;52.540;13.604;2023-07-28T05:36:51;8.43;;;7.70;;
31282;SDS011;17915;52.540;13.604;2023-07-28T05:39:16;8.87;;;7.27;;
31282;SDS011;17915;52.540;13.604;2023-07-28T05:41:42;7.83;;;7.20;;
31282;SDS011;17915;52.540;13.604;2023-07-28T05:44:07;8.67;;;7.23;;
31282;SDS011;17915;52.540;13.604;2023-07-28T05:46:33;7.93;;;7.37;;
31282;SDS011;17915;52.540;13.604;2023-07-28T05:48:59;6.95;;;6.07;;
31282;SDS011;17915;52.540;13.604;2023-07-28T05:51:25;7.13;;;6.47;;
31282;SDS011;17915;52.540;13.604;2023-07-28T05:53:50;6.63;;;6.23;;
31282;SDS011;17915;52.540;13.604;2023-07-28T05:56:16;7.67;;;6.97;;
31282;SDS011;17915;52.540;13.604;2023-07-28T05:58:41;6.57;;;6.00;;
31282;SDS011;17915;52.540;13.604;2023-07-28T06:01:07;6.70;;;6.20;;
31282;SDS011;17915;52.540;13.604;2023-07-28T06:03:32;7.93;;;7.23;;
31282;SDS011;17915;52.540;13.604;2023-07-28T06:05:58;7.13;;;6.00;;
31282;SDS011;17915;52.540;13.604;2023-07-28T06:08:23;7.87;;;7.20;;
31282;SDS011;17915;52.540;13.604;2023-07-28T06:10:48;8.67;;;6.73;;
31282;SDS011;17915;52.540;13.604;2023-07-28T06:13:14;6.43;;;5.83;;
31282;SDS011;17915;52.540;13.604;2023-07-28T06:15:40;6.50;;;5.90;;
31282;SDS011;17915;52.540;13.604;2023-07-28T06:18:05;7.78;;;5.90;;
31282;SDS011;17915;52.540;13.604;2023-07-28T06:20:31;6.27;;;5.90;;
31282;SDS011;17915;52.540;13.604;2023-07-28T06:22:56;6.33;;;5.93;;
31282;SDS011;17915;52.540;13.604;2023-07-28T06:25:22;6.80;;;6.03;;
31282;SDS011;17915;52.540;13.604;2023-07-28T06:27:47;15.13;;;6.47;;
31282;SDS011;17915;52.540;13.604;2023-07-28T06:30:13;5.43;;;4.80;;
31282;SDS011;17915;52.540;13.604;2023-07-28T06:32:38;5.17;;;4.87;;
31282;SDS011;17915;52.540;13.604;2023-07-28T06:35:04;7.50;;;5.67;;
31282;SDS011;17915;52.540;13.604;2023-07-28T06:37:32;7.40;;;5.72;;
31282;SDS011;17915;52.540;13.604;2023-07-28T06:39:58;5.70;;;5.13;;
31282;SDS011;17915;52.540;13.604;2023-07-28T06:42:23;5.87;;;5.00;;
31282;SDS011;17915;52.540;13.604;2023-07-28T06:44:52;14.52;;;5.30;;
31282;SDS011;17915;52.540;13.604;2023-07-28T06:47:17;5.07;;;4.78;;
31282;SDS011;17915;52.540;13.604;2023-07-28T06:49:43;5.28;;;4.95;;
31282;SDS011;17915;52.540;13.604;2023-07-28T06:52:09;6.68;;;5.38;;
31282;SDS011;17915;52.540;13.604;2023-07-28T06:54:34;9.00;;;6.13;;
31282;SDS011;17915;52.540;13.604;2023-07-28T06:57:01;14.30;;;5.88;;
31282;SDS011;17915;52.540;13.604;2023-07-28T06:59:27;6.80;;;5.40;;
31282;SDS011;17915;52.540;13.604;2023-07-28T07:01:52;5.50;;;5.20;;
31282;SDS011;17915;52.540;13.604;2023-07-28T07:04:18;6.50;;;5.97;;
31282;SDS011;17915;52.540;13.604;2023-07-28T07:06:44;8.38;;;4.90;;
31282;SDS011;17915;52.540;13.604;2023-07-28T07:09:10;6.90;;;5.25;;
31282;SDS011;17915;52.540;13.604;2023-07-28T07:11:39;5.32;;;4.88;;
31282;SDS011;17915;52.540;13.604;2023-07-28T07:14:04;7.73;;;5.33;;
31282;SDS011;17915;52.540;13.604;2023-07-28T07:16:30;6.90;;;5.33;;
31282;SDS011;17915;52.540;13.604;2023-07-28T07:18:55;4.77;;;4.47;;
31282;SDS011;17915;52.540;13.604;2023-07-28T07:21:20;7.00;;;4.23;;
31282;SDS011;17915;52.540;13.604;2023-07-28T07:23:46;5.43;;;3.80;;
31282;SDS011;17915;52.540;13.604;2023-07-28T07:26:11;3.63;;;3.43;;
31282;SDS011;17915;52.540;13.604;2023-07-28T07:28:37;12.57;;;4.20;;
31282;SDS011;17915;52.540;13.604;2023-07-28T07:31:02;3.63;;;3.43;;
31282;SDS011;17915;52.540;13.604;2023-07-28T07:33:28;3.22;;;3.03;;
31282;SDS011;17915;52.540;13.604;2023-07-28T07:35:53;2.90;;;2.70;;
31282;SDS011;17915;52.540;13.604;2023-07-28T07:38:19;3.40;;;3.20;;
31282;SDS011;17915;52.540;13.604;2023-07-28T07:40:47;3.27;;;3.07;;
31282;SDS011;17915;52.540;13.604;2023-07-28T07:43:13;6.28;;;3.63;;
31282;SDS011;17915;52.540;13.604;2023-07-28T07:45:44;3.42;;;3.22;;
31282;SDS011;17915;52.540;13.604;2023-07-28T07:48:11;5.85;;;3.20;;
31282;SDS011;17915;52.540;13.604;2023-07-28T07:50:37;3.43;;;3.23;;
31282;SDS011;17915;52.540;13.604;2023-07-28T07:53:02;3.47;;;3.17;;
31282;SDS011;17915;52.540;13.604;2023-07-28T07:55:28;3.03;;;2.83;;
31282;SDS011;17915;52.540;13.604;2023-07-28T07:57:53;3.13;;;2.90;;
31282;SDS011;17915;52.540;13.604;2023-07-28T08:00:19;3.77;;;3.47;;
31282;SDS011;17915;52.540;13.604;2023-07-28T08:02:44;6.93;;;3.03;;
31282;SDS011;17915;52.540;13.604;2023-07-28T08:05:10;3.63;;;2.67;;
31282;SDS011;17915;52.540;13.604;2023-07-28T08:07:35;3.03;;;2.83;;
31282;SDS011;17915;52.540;13.604;2023-07-28T08:10:01;9.82;;;2.63;;
31282;SDS011;17915;52.540;13.604;2023-07-28T08:12:26;3.37;;;2.50;;
31282;SDS011;17915;52.540;13.604;2023-07-28T08:14:52;2.05;;;1.95;;
31282;SDS011;17915;52.540;13.604;2023-07-28T08:17:18;5.32;;;2.40;;
31282;SDS011;17915;52.540;13.604;2023-07-28T08:19:44;2.55;;;2.45;;
31282;SDS011;17915;52.540;13.604;2023-07-28T08:22:09;2.73;;;2.60;;
31282;SDS011;17915;52.540;13.604;2023-07-28T08:24:36;1.90;;;1.80;;
31282;SDS011;17915;52.540;13.604;2023-07-28T08:27:02;4.38;;;2.22;;
31282;SDS011;17915;52.540;13.604;2023-07-28T08:29:27;2.13;;;2.03;;
31282;SDS011;17915;52.540;13.604;2023-07-28T08:31:52;2.37;;;2.07;;
31282;SDS011;17915;52.540;13.604;2023-07-28T08:34:18;3.33;;;1.90;;
31282;SDS011;17915;52.540;13.604;2023-07-28T08:36:43;1.93;;;1.90;;
31282;SDS011;17915;52.540;13.604;2023-07-28T08:39:09;3.80;;;2.27;;
31282;SDS011;17915;52.540;13.604;2023-07-28T08:41:34;2.33;;;1.83;;
31282;SDS011;17915;52.540;13.604;2023-07-28T08:44:00;1.92;;;1.83;;
31282;SDS011;17915;52.540;13.604;2023-07-28T08:46:25;2.30;;;1.70;;
31282;SDS011;17915;52.540;13.604;2023-07-28T08:48:51;2.00;;;1.90;;
31282;SDS011;17915;52.540;13.604;2023-07-28T08:51:16;1.90;;;1.80;;
31282;SDS011;17915;52.540;13.604;2023-07-28T08:53:42;2.27;;;2.10;;
31282;SDS011;17915;52.540;13.604;2023-07-28T08:56:08;3.70;;;3.03;;
31282;SDS011;17915;52.540;13.604;2023-07-28T08:58:33;2.10;;;2.00;;
31282;SDS011;17915;52.540;13.604;2023-07-28T09:00:59;3.50;;;2.40;;
31282;SDS011;17915;52.540;13.604;2023-07-28T09:03:28;2.50;;;2.30;;
31282;SDS011;17915;52.540;13.604;2023-07-28T09:08:26;6.60;;;2.10;;
31282;SDS011;17915;52.540;13.604;2023-07-28T09:10:52;2.75;;;2.47;;
31282;SDS011;17915;52.540;13.604;2023-07-28T09:13:19;4.90;;;1.67;;
31282;SDS011;17915;52.540;13.604;2023-07-28T09:15:45;1.98;;;1.80;;
31282;SDS011;17915;52.540;13.604;2023-07-28T09:18:11;1.55;;;1.50;;
31282;SDS011;17915;52.540;13.604;2023-07-28T09:20:38;1.42;;;1.40;;
31282;SDS011;17915;52.540;13.604;2023-07-28T09:23:06;1.65;;;1.55;;
31282;SDS011;17915;52.540;13.604;2023-07-28T09:25:33;1.52;;;1.45;;
31282;SDS011;17915;52.540;13.604;2023-07-28T09:27:59;3.25;;;1.60;;
31282;SDS011;17915;52.540;13.604;2023-07-28T09:30:25;1.50;;;1.37;;
31282;SDS011;17915;52.540;13.604;2023-07-28T09:32:51;1.73;;;1.73;;
31282;SDS011;17915;52.540;13.604;2023-07-28T09:35:18;1.63;;;1.52;;
31282;SDS011;17915;52.540;13.604;2023-07-28T09:37:46;2.88;;;2.78;;
31282;SDS011;17915;52.540;13.604;2023-07-28T09:40:14;1.95;;;1.85;;
31282;SDS011;17915;52.540;13.604;2023-07-28T09:42:42;10.95;;;2.08;;
31282;SDS011;17915;52.540;13.604;2023-07-28T09:45:11;1.95;;;1.85;;
31282;SDS011;17915;52.540;13.604;2023-07-28T09:47:37;1.98;;;1.70;;
31282;SDS011;17915;52.540;13.604;2023-07-28T09:50:07;2.63;;;2.42;;
31282;SDS011;17915;52.540;13.604;2023-07-28T09:52:34;2.95;;;2.20;;
31282;SDS011;17915;52.540;13.604;2023-07-28T09:55:09;3.65;;;1.58;;
31282;SDS011;17915;52.540;13.604;2023-07-28T09:57:38;2.30;;;2.20;;
31282;SDS011;17915;52.540;13.604;2023-07-28T10:00:07;1.80;;;1.70;;
31282;SDS011;17915;52.540;13.604;2023-07-28T10:02:34;2.28;;;2.17;;
31282;SDS011;17915;52.540;13.604;2023-07-28T10:05:00;1.83;;;1.75;;
31282;SDS011;17915;52.540;13.604;2023-07-28T10:07:26;1.95;;;1.90;;
31282;SDS011;17915;52.540;13.604;2023-07-28T10:09:52;1.85;;;1.75;;
31282;SDS011;17915;52.540;13.604;2023-07-28T10:12:24;6.13;;;5.60;;
31282;SDS011;17915;52.540;13.604;2023-07-28T10:15:03;1.85;;;1.75;;
31282;SDS011;17915;52.540;13.604;2023-07-28T10:17:34;2.85;;;1.92;;
31282;SDS011;17915;52.540;13.604;2023-07-28T10:20:02;1.95;;;1.90;;
31282;SDS011;17915;52.540;13.604;2023-07-28T10:22:33;1.98;;;1.88;;
31282;SDS011;17915;52.540;13.604;2023-07-28T10:25:08;1.80;;;1.63;;
31282;SDS011;17915;52.540;13.604;2023-07-28T10:27:36;2.35;;;2.25;;
31282;SDS011;17915;52.540;13.604;2023-07-28T10:30:04;3.63;;;2.50;;
31282;SDS011;17915;52.540;13.604;2023-07-28T10:32:41;3.60;;;2.13;;
31282;SDS011;17915;52.540;13.604;2023-07-28T10:37:36;3.47;;;1.80;;
31282;SDS011;17915;52.540;13.604;2023-07-28T10:42:59;4.72;;;1.55;;
31282;SDS011;17915;52.540;13.604;2023-07-28T10:45:26;6.53;;;2.00;;
31282;SDS011;17915;52.540;13.604;2023-07-28T10:47:53;2.08;;;1.92;;
31282;SDS011;17915;52.540;13.604;2023-07-28T10:50:25;2.80;;;2.17;;
31282;SDS011;17915;52.540;13.604;2023-07-28T10:52:52;2.35;;;2.15;;
31282;SDS011;17915;52.540;13.604;2023-07-28T10:57:45;7.32;;;2.47;;
31282;SDS011;17915;52.540;13.604;2023-07-28T11:00:14;2.20;;;2.10;;
31282;SDS011;17915;52.540;13.604;2023-07-28T11:02:44;7.65;;;2.90;;
31282;SDS011;17915;52.540;13.604;2023-07-28T11:05:22;5.30;;;2.38;;
31282;SDS011;17915;52.540;13.604;2023-07-28T11:07:49;1.63;;;1.52;;
31282;SDS011;17915;52.540;13.604;2023-07-28T11:10:15;1.65;;;1.50;;
31282;SDS011;17915;52.540;13.604;2023-07-28T11:12:40;2.77;;;2.20;;
31282;SDS011;17915;52.540;13.604;2023-07-28T11:15:10;2.33;;;2.20;;
31282;SDS011;17915;52.540;13.604;2023-07-28T11:17:40;2.50;;;2.30;;
31282;SDS011;17915;52.540;13.604;2023-07-28T11:20:15;2.40;;;2.30;;
31282;SDS011;17915;52.540;13.604;2023-07-28T11:22:42;2.00;;;1.90;;
31282;SDS011;17915;52.540;13.604;2023-07-28T11:25:09;5.78;;;3.05;;
31282;SDS011;17915;52.540;13.604;2023-07-28T11:27:35;4.40;;;3.87;;
31282;SDS011;17915;52.540;13.604;2023-07-28T11:30:01;2.08;;;1.98;;
31282;SDS011;17915;52.540;13.604;2023-07-28T11:32:28;1.92;;;1.73;;
31282;SDS011;17915;52.540;13.604;2023-07-28T11:34:55;3.67;;;1.83;;
31282;SDS011;17915;52.540;13.604;2023-07-28T11:37:20;3.43;;;1.90;;
31282;SDS011;17915;52.540;13.604;2023-07-28T11:39:46;2.10;;;2.00;;
31282;SDS011;17915;52.540;13.604;2023-07-28T11:42:11;2.13;;;2.03;;
31282;SDS011;17915;52.540;13.604;2023-07-28T11:44:37;4.40;;;3.00;;
31282;SDS011;17915;52.540;13.604;2023-07-28T11:47:04;2.08;;;1.95;;
31282;SDS011;17915;52.540;13.604;2023-07-28T11:49:30;2.03;;;1.92;;
31282;SDS011;17915;52.540;13.604;2023-07-28T11:51:56;2.20;;;2.10;;
31282;SDS011;17915;52.540;13.604;2023-07-28T11:54:24;2.78;;;1.83;;
31282;SDS011;17915;52.540;13.604;2023-07-28T11:56:51;2.17;;;2.08;;
31282;SDS011;17915;52.540;13.604;2023-07-28T11:59:20;2.15;;;1.73;;
31282;SDS011;17915;52.540;13.604;2023-07-28T12:04:30;2.42;;;2.22;;
31282;SDS011;17915;52.540;13.604;2023-07-28T12:07:16;5.47;;;2.05;;
31282;SDS011;17915;52.540;13.604;2023-07-28T12:12:14;2.03;;;1.92;;
31282;SDS011;17915;52.540;13.604;2023-07-28T12:14:40;3.00;;;1.95;;
31282;SDS011;17915;52.540;13.604;2023-07-28T12:17:12;2.20;;;1.97;;
31282;SDS011;17915;52.540;13.604;2023-07-28T12:19:42;2.70;;;2.15;;
31282;SDS011;17915;52.540;13.604;2023-07-28T12:22:42;1.90;;;1.80;;
31282;SDS011;17915;52.540;13.604;2023-07-28T12:25:09;3.97;;;1.88;;
31282;SDS011;17915;52.540;13.604;2023-07-28T12:30:00;1.63;;;1.58;;
31282;SDS011;17915;52.540;13.604;2023-07-28T12:32:26;5.90;;;1.90;;
31282;SDS011;17915;52.540;13.604;2023-07-28T12:34:52;1.98;;;1.88;;
31282;SDS011;17915;52.540;13.604;2023-07-28T12:37:18;2.28;;;2.17;;
31282;SDS011;17915;52.540;13.604;2023-07-28T12:39:44;2.30;;;2.10;;
31282;SDS011;17915;52.540;13.604;2023-07-28T12:42:10;1.92;;;1.90;;
31282;SDS011;17915;52.540;13.604;2023-07-28T12:44:36;2.72;;;2.63;;
31282;SDS011;17915;52.540;13.604;2023-07-28T12:49:28;1.98;;;1.88;;
31282;SDS011;17915;52.540;13.604;2023-07-28T12:51:54;2.35;;;2.25;;
31282;SDS011;17915;52.540;13.604;2023-07-28T12:54:23;2.30;;;2.20;;
31282;SDS011;17915;52.540;13.604;2023-07-28T12:56:49;2.10;;;2.00;;
31282;SDS011;17915;52.540;13.604;2023-07-28T12:59:14;2.13;;;2.03;;
31282;SDS011;17915;52.540;13.604;2023-07-28T13:01:40;2.50;;;2.40;;
31282;SDS011;17915;52.540;13.604;2023-07-28T13:04:06;3.47;;;2.27;;
31282;SDS011;17915;52.540;13.604;2023-07-28T13:06:31;2.50;;;2.40;;
31282;SDS011;17915;52.540;13.604;2023-07-28T13:08:57;2.30;;;2.10;;
31282;SDS011;17915;52.540;13.604;2023-07-28T13:11:22;2.90;;;2.70;;
31282;SDS011;17915;52.540;13.604;2023-07-28T13:13:47;2.97;;;2.07;;
31282;SDS011;17915;52.540;13.604;2023-07-28T13:16:13;2.30;;;2.20;;
31282;SDS011;17915;52.540;13.604;2023-07-28T13:18:39;2.23;;;2.13;;
31282;SDS011;17915;52.540;13.604;2023-07-28T13:21:05;2.00;;;1.90;;
31282;SDS011;17915;52.540;13.604;2023-07-28T13:23:31;2.38;;;2.28;;
31282;SDS011;17915;52.540;13.604;2023-07-28T13:25:57;3.53;;;2.40;;
31282;SDS011;17915;52.540;13.604;2023-07-28T13:28:22;2.38;;;2.28;;
31282;SDS011;17915;52.540;13.604;2023-07-28T13:30:50;3.08;;;2.20;;
31282;SDS011;17915;52.540;13.604;2023-07-28T13:33:15;2.27;;;2.07;;
31282;SDS011;17915;52.540;13.604;2023-07-28T13:35:41;2.03;;;1.80;;
31282;SDS011;17915;52.540;13.604;2023-07-28T13:38:06;1.80;;;1.70;;
31282;SDS011;17915;52.540;13.604;2023-07-28T13:40:31;4.90;;;1.83;;
31282;SDS011;17915;52.540;13.604;2023-07-28T13:42:57;1.97;;;1.87;;
31282;SDS011;17915;52.540;13.604;2023-07-28T13:45:22;2.07;;;1.97;;
31282;SDS011;17915;52.540;13.604;2023-07-28T13:47:48;1.67;;;1.60;;
31282;SDS011;17915;52.540;13.604;2023-07-28T13:50:13;2.20;;;1.73;;
31282;SDS011;17915;52.540;13.604;2023-07-28T13:52:38;1.90;;;1.80;;
31282;SDS011;17915;52.540;13.604;2023-07-28T13:55:04;1.80;;;1.70;;
31282;SDS011;17915;52.540;13.604;2023-07-28T13:57:31;1.30;;;1.30;;
31282;SDS011;17915;52.540;13.604;2023-07-28T13:59:57;2.25;;;2.05;;
31282;SDS011;17915;52.540;13.604;2023-07-28T14:02:22;2.25;;;1.77;;
31282;SDS011;17915;52.540;13.604;2023-07-28T14:04:48;1.83;;;1.80;;
31282;SDS011;17915;52.540;13.604;2023-07-28T14:07:13;5.00;;;1.80;;
31282;SDS011;17915;52.540;13.604;2023-07-28T14:09:39;2.00;;;1.90;;
31282;SDS011;17915;52.540;13.604;2023-07-28T14:12:04;5.80;;;1.80;;
31282;SDS011;17915;52.540;13.604;2023-07-28T14:14:31;1.73;;;1.63;;
31282;SDS011;17915;52.540;13.604;2023-07-28T14:16:56;2.55;;;1.60;;
31282;SDS011;17915;52.540;13.604;2023-07-28T14:19:22;1.30;;;1.30;;
31282;SDS011;17915;52.540;13.604;2023-07-28T14:21:47;1.30;;;1.20;;
31282;SDS011;17915;52.540;13.604;2023-07-28T14:24:13;1.57;;;1.47;;
31282;SDS011;17915;52.540;13.604;2023-07-28T14:26:38;1.37;;;1.37;;
31282;SDS011;17915;52.540;13.604;2023-07-28T14:29:03;1.70;;;1.67;;
31282;SDS011;17915;52.540;13.604;2023-07-28T14:31:29;1.47;;;1.40;;
31282;SDS011;17915;52.540;13.604;2023-07-28T14:33:54;2.63;;;1.20;;
31282;SDS011;17915;52.540;13.604;2023-07-28T14:36:20;1.43;;;1.43;;
31282;SDS011;17915;52.540;13.604;2023-07-28T14:38:45;1.15;;;1.15;;
31282;SDS011;17915;52.540;13.604;2023-07-28T14:41:11;2.07;;;1.97;;
31282;SDS011;17915;52.540;13.604;2023-07-28T14:43:37;1.80;;;1.70;;
31282;SDS011;17915;52.540;13.604;2023-07-28T14:46:02;1.60;;;1.60;;
31282;SDS011;17915;52.540;13.604;2023-07-28T14:48:27;3.53;;;1.50;;
31282;SDS011;17915;52.540;13.604;2023-07-28T14:50:53;2.38;;;1.58;;
31282;SDS011;17915;52.540;13.604;2023-07-28T14:53:31;1.80;;;1.70;;